Time;durP1;ratioP1;P1;durP2;ratioP2;P2;SDS_P1;SDS_P2;PMS_P1;PMS_P2;Temp;Humidity;BMP_temperature;BMP_pressure;BME280_temperature;BME280_humidity;BME280_pressure;Samples;Min_cycle;Max_cycle;Signal;HPM_P1;HPM_P2
2023/09/05 00:04:10;;;;;;;4.68;2.60;;;;;;;17.10;59.79;100998.13;20760560;28;20569;-79
2023/09/05 00:14:15;;;;;;;4.63;2.70;;;;;;;16.63;62.40;100994.13;20762097;28;20233;-79
2023/09/05 00:24:24;;;;;;;5.50;2.60;;;;;;;16.99;61.02;100987.59;20776157;28;20643;-80
2023/09/05 00:34:28;;;;;;;7.80;2.47;;;;;;;16.63;62.83;100982.75;20780028;28;20229;-81
2023/09/05 00:44:29;;;;;;;4.88;2.45;;;;;;;16.70;61.16;100988.66;20772286;28;20521;-80
2023/09/05 00:54:32;;;;;;;6.72;2.60;;;;;;;16.38;62.91;100988.34;20790600;28;20204;-80
2023/09/05 01:04:34;;;;;;;5.03;2.65;;;;;;;16.19;64.45;100979.56;20769843;28;20505;-81
2023/09/05 01:14:37;;;;;;;3.15;2.63;;;;;;;16.23;63.55;100980.53;20705263;28;20231;-80
2023/09/05 01:24:40;;;;;;;6.72;2.83;;;;;;;16.40;62.58;100985.97;20699333;28;20225;-80
2023/09/05 01:34:42;;;;;;;5.65;2.90;;;;;;;16.02;64.86;100985.44;20697213;28;20239;-81
2023/09/05 01:44:45;;;;;;;5.10;2.55;;;;;;;15.91;64.70;100978.53;20705353;28;20229;-81
2023/09/05 01:54:47;;;;;;;3.63;2.28;;;;;;;15.72;65.08;100976.19;20702962;28;20644;-81
2023/09/05 02:04:50;;;;;;;2.33;2.13;;;;;;;15.77;65.27;100974.00;20697811;28;20610;-80
2023/09/05 02:14:52;;;;;;;2.38;1.98;;;;;;;15.64;65.97;100974.25;20708966;28;20296;-81
2023/09/05 02:24:55;;;;;;;5.90;1.98;;;;;;;15.61;65.62;100981.44;20697264;28;20239;-81
2023/09/05 02:34:57;;;;;;;2.58;1.83;;;;;;;15.63;65.61;100973.44;20690705;28;20268;-80
2023/09/05 02:45:01;;;;;;;2.38;2.08;;;;;;;15.76;64.64;100980.84;20692565;28;20721;-80
2023/09/05 02:55:04;;;;;;;6.05;2.67;;;;;;;15.95;63.87;100985.19;20738239;28;20292;-79
2023/09/05 03:05:08;;;;;;;3.00;2.35;;;;;;;15.51;65.95;101004.56;20744955;28;20316;-81
2023/09/05 03:15:10;;;;;;;3.55;2.30;;;;;;;15.88;63.87;101004.78;20731756;28;20201;-80
2023/09/05 03:25:13;;;;;;;4.95;2.58;;;;;;;15.60;64.75;101005.31;20718038;28;20221;-81
2023/09/05 03:35:15;;;;;;;4.50;2.63;;;;;;;15.68;65.17;100993.09;20695190;28;20228;-81
2023/09/05 03:45:19;;;;;;;6.05;2.83;;;;;;;15.16;66.91;101004.00;20697876;28;20557;-79
2023/09/05 03:55:21;;;;;;;7.30;2.72;;;;;;;15.39;65.54;101001.66;20695449;28;20216;-80
2023/09/05 04:05:24;;;;;;;2.95;2.72;;;;;;;14.90;67.82;100995.66;20696279;28;20241;-80
2023/09/05 04:15:26;;;;;;;4.18;2.53;;;;;;;14.51;69.24;101008.16;20688855;28;20305;-79
2023/09/05 04:25:31;;;;;;;3.63;2.40;;;;;;;14.88;68.57;101002.81;20688437;28;20229;-79
2023/09/05 04:35:33;;;;;;;5.68;3.15;;;;;;;14.85;68.28;101001.50;20689167;28;20228;-78
2023/09/05 04:45:36;;;;;;;3.55;2.95;;;;;;;14.86;68.26;101003.16;20696645;28;20218;-78
2023/09/05 04:55:38;;;;;;;5.18;3.30;;;;;;;14.82;68.67;101015.50;20681634;28;20255;-79
2023/09/05 05:05:41;;;;;;;5.65;3.25;;;;;;;14.55;69.51;101028.16;20703694;28;20230;-79
2023/09/05 05:15:45;;;;;;;6.38;4.40;;;;;;;14.83;68.82;101020.84;20708198;28;20772;-79
2023/09/05 05:25:48;;;;;;;4.45;3.17;;;;;;;15.04;68.24;101018.09;20694742;28;20271;-80
2023/09/05 05:35:54;;;;;;;4.70;3.13;;;;;;;14.90;68.54;101012.66;20679240;28;20319;-80
2023/09/05 05:45:57;;;;;;;5.60;2.72;;;;;;;15.35;67.52;101017.72;20706320;28;20220;-80
2023/09/05 05:55:59;;;;;;;4.07;3.10;;;;;;;15.42;66.98;101012.34;20723071;28;20287;-81
2023/09/05 06:06:03;;;;;;;4.38;3.15;;;;;;;15.67;66.34;101016.97;20704630;28;20224;-81
2023/09/05 06:16:05;;;;;;;3.58;2.97;;;;;;;15.75;66.50;101027.38;20737634;28;20300;-80
2023/09/05 06:26:08;;;;;;;7.18;3.78;;;;;;;15.86;66.81;101015.63;20708176;28;20226;-80
2023/09/05 06:36:11;;;;;;;5.40;3.20;;;;;;;16.25;65.68;101023.59;20662877;28;1133061;-80
2023/09/05 06:46:14;;;;;;;6.20;4.13;;;;;;;16.62;63.73;101023.72;20724458;28;20501;-81
2023/09/05 06:56:17;;;;;;;4.53;3.65;;;;;;;16.70;64.22;101017.91;20720886;28;20291;-81
2023/09/05 07:06:21;;;;;;;6.60;3.25;;;;;;;16.86;65.26;101023.72;20728754;28;20228;-81
2023/09/05 07:16:23;;;;;;;7.15;3.50;;;;;;;17.42;61.59;101032.44;20736648;28;20554;-81
2023/09/05 07:26:26;;;;;;;6.40;4.00;;;;;;;17.33;61.36;101026.06;20714957;28;20308;-80
2023/09/05 07:36:28;;;;;;;5.13;3.28;;;;;;;17.79;60.14;101025.50;20710315;28;20267;-80
2023/09/05 07:46:31;;;;;;;4.43;2.55;;;;;;;18.25;62.13;101029.69;20717393;28;20316;-81
2023/09/05 07:56:34;;;;;;;4.80;2.80;;;;;;;18.80;59.29;101018.53;20702724;28;20208;-81
2023/09/05 08:06:37;;;;;;;7.85;2.70;;;;;;;19.41;57.12;101020.84;20688183;28;20229;-81
2023/09/05 08:16:39;;;;;;;4.22;2.58;;;;;;;19.77;56.43;101011.88;20716937;28;20491;-81
2023/09/05 08:26:42;;;;;;;7.88;2.40;;;;;;;20.45;57.29;101018.97;20748347;28;20217;-81
2023/09/05 08:36:44;;;;;;;3.45;1.70;;;;;;;20.79;50.97;101011.41;20723907;28;20910;-81
2023/09/05 08:46:48;;;;;;;4.47;1.50;;;;;;;21.05;50.33;100997.97;20707033;28;20308;-81
2023/09/05 08:56:49;;;;;;;3.15;1.35;;;;;;;21.92;46.89;100989.44;20733889;28;20207;-81
2023/09/05 09:06:57;;;;;;;1.30;1.20;;;;;;;22.34;44.30;100971.88;20703645;28;20228;-80
2023/09/05 09:17:00;;;;;;;2.88;1.05;;;;;;;23.00;44.47;100964.28;20727578;28;20200;-79
2023/09/05 09:27:05;;;;;;;2.10;0.68;;;;;;;23.23;41.26;100959.13;20689724;28;20222;-80
2023/09/05 09:37:08;;;;;;;2.83;0.90;;;;;;;23.37;45.84;100972.75;20723068;28;20575;-80
2023/09/05 09:47:12;;;;;;;2.03;0.80;;;;;;;23.91;38.87;100955.34;20717099;28;20230;-80
2023/09/05 09:57:16;;;;;;;0.90;0.40;;;;;;;24.52;38.03;100952.63;20698056;28;20225;-80
2023/09/05 10:07:19;;;;;;;1.25;0.77;;;;;;;24.37;37.58;100940.28;20686409;28;20589;-79
2023/09/05 10:17:22;;;;;;;0.73;0.50;;;;;;;24.95;35.66;100933.28;20696402;28;20237;-80
2023/09/05 10:27:25;;;;;;;1.95;0.52;;;;;;;24.65;38.44;100927.16;20709514;28;20225;-79
2023/09/05 10:37:42;;;;;;;0.95;0.57;;;;;;;25.66;36.16;100919.53;20713219;28;20234;-79
2023/09/05 10:47:47;;;;;;;2.75;0.43;;;;;;;25.62;35.71;100918.72;20732893;28;20224;-79
2023/09/05 10:57:50;;;;;;;0.88;0.57;;;;;;;24.96;35.50;100909.84;20747374;28;20189;-80
2023/09/05 11:07:55;;;;;;;0.80;0.40;;;;;;;26.25;35.26;100910.97;20754965;28;20311;-79
2023/09/05 11:18:00;;;;;;;1.75;0.40;;;;;;;26.09;33.51;100912.72;20713642;28;20207;-80
2023/09/05 11:28:04;;;;;;;1.42;0.30;;;;;;;25.99;32.62;100906.59;20745846;28;20221;-80
2023/09/05 11:38:06;;;;;;;0.68;0.25;;;;;;;25.85;33.52;100891.44;20734032;28;20239;-79
2023/09/05 11:48:11;;;;;;;1.15;0.35;;;;;;;26.48;32.23;100886.50;20737117;28;20217;-80
2023/09/05 11:58:14;;;;;;;1.40;0.30;;;;;;;26.56;31.49;100877.31;20708794;28;20505;-80
2023/09/05 12:08:20;;;;;;;1.40;0.20;;;;;;;26.67;32.64;100869.38;20731346;28;20645;-80
2023/09/05 12:18:22;;;;;;;0.68;0.30;;;;;;;26.31;32.26;100863.13;20747621;28;20479;-79
2023/09/05 12:28:26;;;;;;;1.85;0.40;;;;;;;27.01;31.79;100857.09;20691332;28;20319;-79
2023/09/05 12:38:29;;;;;;;0.55;0.20;;;;;;;27.67;31.94;100839.31;20735944;28;20549;-80
2023/09/05 12:48:32;;;;;;;2.10;0.40;;;;;;;27.41;32.04;100838.84;20712488;28;20271;-79
2023/09/05 12:58:34;;;;;;;1.77;0.40;;;;;;;27.83;31.50;100832.94;20751043;28;20197;-79
2023/09/05 13:08:37;;;;;;;0.30;0.28;;;;;;;27.48;31.96;100826.38;20705511;28;20221;-80
2023/09/05 13:18:39;;;;;;;2.17;0.40;;;;;;;27.28;31.17;100828.31;20700522;28;20582;-80
2023/09/05 13:28:42;;;;;;;1.23;0.38;;;;;;;28.27;30.23;100820.25;20699951;28;20518;-80
2023/09/05 13:38:44;;;;;;;0.88;0.30;;;;;;;27.97;30.90;100809.56;20711388;28;20319;-79
2023/09/05 13:48:48;;;;;;;0.63;0.30;;;;;;;27.81;30.66;100800.72;20708537;28;20224;-80
2023/09/05 13:58:50;;;;;;;1.63;0.20;;;;;;;28.18;28.80;100788.16;20710570;28;20240;-81
2023/09/05 14:08:53;;;;;;;2.20;0.35;;;;;;;27.77;29.52;100779.75;20730730;28;20221;-79
2023/09/05 14:18:54;;;;;;;0.75;0.30;;;;;;;27.94;31.32;100769.94;20721150;28;20198;-80
2023/09/05 14:28:59;;;;;;;0.70;0.40;;;;;;;27.71;30.81;100771.50;20704460;28;20247;-79
2023/09/05 14:39:01;;;;;;;1.80;0.30;;;;;;;27.69;29.33;100755.84;20726183;28;20620;-79
2023/09/05 14:49:05;;;;;;;1.15;0.57;;;;;;;28.11;29.30;100752.28;20728522;28;20225;-82
2023/09/05 14:59:06;;;;;;;0.77;0.30;;;;;;;27.86;28.88;100751.06;20705712;28;20586;-78
2023/09/05 15:09:12;;;;;;;1.90;0.45;;;;;;;27.64;29.29;100742.72;20700606;28;20256;-78
2023/09/05 15:19:14;;;;;;;0.82;0.30;;;;;;;27.59;29.69;100733.72;20702137;28;20216;-79
2023/09/05 15:29:17;;;;;;;0.63;0.40;;;;;;;27.30;30.37;100734.16;20710921;28;20233;-79
2023/09/05 15:39:19;;;;;;;1.25;0.20;;;;;;;28.00;29.94;100733.47;20715266;28;20320;-78
2023/09/05 15:49:23;;;;;;;1.95;0.30;;;;;;;27.59;31.94;100725.84;20693727;28;20225;-79
2023/09/05 15:59:27;;;;;;;0.82;0.40;;;;;;;27.34;29.90;100717.56;20696241;28;20202;-79
2023/09/05 16:09:31;;;;;;;0.60;0.30;;;;;;;27.39;30.30;100719.16;20702620;28;20289;-79
2023/09/05 16:19:33;;;;;;;0.85;0.52;;;;;;;27.25;31.27;100722.25;20694640;28;20541;-79
2023/09/05 16:29:38;;;;;;;0.38;0.30;;;;;;;27.17;31.11;100723.56;20707198;28;20304;-81
2023/09/05 16:39:42;;;;;;;1.05;0.47;;;;;;;27.36;31.54;100734.47;20688089;28;20514;-81
2023/09/05 16:49:47;;;;;;;0.73;0.57;;;;;;;26.95;36.00;100741.22;20704342;28;20217;-80
2023/09/05 16:59:49;;;;;;;0.85;0.80;;;;;;;26.50;37.24;100751.19;20698847;28;20232;-81
2023/09/05 17:09:56;;;;;;;1.42;0.90;;;;;;;25.90;39.60;100767.00;20709199;28;20228;-79
2023/09/05 17:20:00;;;;;;;2.85;1.02;;;;;;;25.59;41.10;100758.13;20720825;28;20570;-79
2023/09/05 17:30:30;;;;;;;3.15;1.23;;;;;;;25.43;44.05;100772.25;20704349;28;20221;-79
2023/09/05 17:40:35;;;;;;;2.03;1.05;;;;;;;24.87;46.97;100756.88;20741387;28;20233;-80
2023/09/05 17:50:38;;;;;;;2.10;1.10;;;;;;;24.58;48.00;100779.13;20716362;28;20241;-79
2023/09/05 18:00:40;;;;;;;4.07;1.17;;;;;;;24.43;49.31;100788.19;20711807;28;20202;-79
2023/09/05 18:10:45;;;;;;;2.83;1.55;;;;;;;24.20;50.05;100806.72;20700494;28;20313;-79
2023/09/05 18:20:48;;;;;;;4.40;1.70;;;;;;;23.69;51.87;100821.44;20706188;28;20513;-78
2023/09/05 18:30:52;;;;;;;2.60;1.85;;;;;;;23.63;53.02;100825.97;20728245;28;20264;-81
2023/09/05 18:40:54;;;;;;;2.08;1.75;;;;;;;23.57;53.07;100832.50;20716433;28;20288;-78
2023/09/05 18:50:57;;;;;;;5.65;1.80;;;;;;;23.09;54.10;100835.59;20693618;28;20221;-79
2023/09/05 19:00:59;;;;;;;5.22;1.60;;;;;;;22.83;55.03;100848.13;20714340;28;20214;-78
2023/09/05 19:11:04;;;;;;;3.10;1.70;;;;;;;22.55;55.77;100850.81;20700139;28;20232;-81
2023/09/05 19:21:06;;;;;;;4.00;2.53;;;;;;;22.55;55.40;100863.09;20699733;28;20193;-80
2023/09/05 19:31:14;;;;;;;3.50;2.10;;;;;;;22.91;53.06;100857.59;20711519;28;20237;-80
2023/09/05 19:41:16;;;;;;;1.80;1.58;;;;;;;22.47;52.88;100858.53;20712918;28;20237;-79
2023/09/05 19:51:19;;;;;;;2.92;1.65;;;;;;;21.42;55.50;100855.00;20725112;28;20304;-79
2023/09/05 20:01:20;;;;;;;1.80;1.67;;;;;;;21.89;54.35;100850.63;20689769;28;20210;-79
2023/09/05 20:11:23;;;;;;;3.50;2.00;;;;;;;22.14;54.46;100854.53;20701192;28;20221;-79
2023/09/05 20:21:25;;;;;;;3.67;1.95;;;;;;;21.15;57.05;100843.97;20704058;28;20201;-78
2023/09/05 20:31:28;;;;;;;4.85;2.92;;;;;;;21.53;55.60;100840.81;20690547;28;20225;-79
2023/09/05 20:41:30;;;;;;;2.33;1.42;;;;;;;21.21;56.48;100845.31;20702856;28;20239;-81
2023/09/05 20:51:34;;;;;;;2.25;1.83;;;;;;;21.21;56.46;100845.31;20695262;28;20445;-79
2023/09/05 21:01:36;;;;;;;1.92;1.30;;;;;;;21.53;53.85;100839.97;20691935;28;20197;-79
2023/09/05 21:11:39;;;;;;;1.67;1.50;;;;;;;20.68;57.20;100845.34;20694509;28;20218;-81
2023/09/05 21:21:41;;;;;;;2.65;1.20;;;;;;;20.73;56.75;100837.28;20694229;28;20612;-80
2023/09/05 21:31:44;;;;;;;3.20;1.60;;;;;;;20.73;56.41;100837.28;20687651;28;20228;-78
2023/09/05 21:41:45;;;;;;;3.78;1.60;;;;;;;20.03;59.64;100836.94;20696113;28;20230;-79
2023/09/05 21:51:50;;;;;;;1.95;1.40;;;;;;;19.98;59.75;100828.69;20699367;28;20626;-79
2023/09/05 22:01:54;;;;;;;3.85;1.65;;;;;;;19.73;60.89;100824.53;20717014;28;20219;-80
2023/09/05 22:12:02;;;;;;;2.75;2.00;;;;;;;19.77;60.22;100828.25;20726521;28;20253;-79
2023/09/05 22:22:05;;;;;;;2.08;1.67;;;;;;;19.15;62.86;100841.69;20713757;28;21309;-80
2023/09/05 22:32:08;;;;;;;4.10;1.98;;;;;;;18.62;64.32;100849.88;20745658;28;20221;-79
2023/09/05 22:42:10;;;;;;;7.28;2.10;;;;;;;18.87;63.51;100842.72;20732005;28;20334;-80
2023/09/05 22:52:15;;;;;;;2.72;2.00;;;;;;;18.62;65.02;100853.56;20738403;28;20231;-80
2023/09/05 23:02:16;;;;;;;3.95;2.22;;;;;;;17.75;67.91;100867.97;20702977;28;20610;-80
2023/09/05 23:12:19;;;;;;;6.18;2.85;;;;;;;18.67;64.43;100849.59;20730599;28;20309;-80
2023/09/05 23:22:21;;;;;;;3.88;2.50;;;;;;;18.76;64.01;100863.66;20732590;28;20208;-80
2023/09/05 23:32:24;;;;;;;6.15;2.83;;;;;;;18.55;64.56;100873.34;20734649;28;20226;-79
2023/09/05 23:42:26;;;;;;;5.88;2.88;;;;;;;17.53;67.97;100880.78;20709724;28;20542;-79
2023/09/05 23:52:35;;;;;;;4.68;2.72;;;;;;;17.95;66.13;100882.34;20703625;28;20224;-80
